sensor_id;sensor_type;location;lat;lon;timestamp;pressure;altitude;pressure_sealevel;temperature;humidity
79378;BME280;68959;53.132;17.984;2023-07-31T00:01:12;100448.59;;;17.12;72.47
79378;BME280;68959;53.132;17.984;2023-07-31T00:03:39;100449.69;;;17.07;72.82
79378;BME280;68959;53.132;17.984;2023-07-31T00:06:06;100450.06;;;17.05;72.67
79378;BME280;68959;53.132;17.984;2023-07-31T00:08:32;100448.39;;;17.07;72.68
79378;BME280;68959;53.132;17.984;2023-07-31T00:10:59;100445.20;;;17.05;72.77
79378;BME280;68959;53.132;17.984;2023-07-31T00:13:25;100446.67;;;17.04;73.22
79378;BME280;68959;53.132;17.984;2023-07-31T00:15:52;100448.10;;;17.07;73.18
79378;BME280;68959;53.132;17.984;2023-07-31T00:18:18;100443.56;;;17.06;72.78
79378;BME280;68959;53.132;17.984;2023-07-31T00:20:45;100443.73;;;17.06;72.88
79378;BME280;68959;53.132;17.984;2023-07-31T00:23:12;100441.94;;;17.08;73.01
79378;BME280;68959;53.132;17.984;2023-07-31T00:25:39;100442.09;;;17.07;73.22
79378;BME280;68959;53.132;17.984;2023-07-31T00:28:06;100437.61;;;17.05;73.30
79378;BME280;68959;53.132;17.984;2023-07-31T00:30:32;100439.41;;;17.04;73.32
79378;BME280;68959;53.132;17.984;2023-07-31T00:33:01;100441.28;;;17.04;73.06
79378;BME280;68959;53.132;17.984;2023-07-31T00:35:27;100442.37;;;17.03;73.28
79378;BME280;68959;53.132;17.984;2023-07-31T00:37:55;100441.90;;;17.03;73.31
79378;BME280;68959;53.132;17.984;2023-07-31T00:40:22;100447.41;;;17.00;73.77
79378;BME280;68959;53.132;17.984;2023-07-31T00:42:49;100443.85;;;16.98;73.81
79378;BME280;68959;53.132;17.984;2023-07-31T00:45:15;100443.55;;;16.96;73.74
79378;BME280;68959;53.132;17.984;2023-07-31T00:47:42;100442.91;;;16.95;74.01
79378;BME280;68959;53.132;17.984;2023-07-31T00:50:09;100443.08;;;16.95;74.42
79378;BME280;68959;53.132;17.984;2023-07-31T00:52:36;100445.27;;;16.94;74.51
79378;BME280;68959;53.132;17.984;2023-07-31T00:55:04;100452.18;;;16.89;75.06
79378;BME280;68959;53.132;17.984;2023-07-31T00:57:32;100452.22;;;16.83;75.04
79378;BME280;68959;53.132;17.984;2023-07-31T01:00:00;100453.52;;;16.81;75.13
79378;BME280;68959;53.132;17.984;2023-07-31T01:02:26;100461.71;;;16.77;75.40
79378;BME280;68959;53.132;17.984;2023-07-31T01:04:53;100455.86;;;16.75;75.73
79378;BME280;68959;53.132;17.984;2023-07-31T01:07:28;100460.35;;;16.76;75.61
79378;BME280;68959;53.132;17.984;2023-07-31T01:10:11;100461.95;;;16.74;75.65
79378;BME280;68959;53.132;17.984;2023-07-31T01:12:41;100461.44;;;16.75;75.68
79378;BME280;68959;53.132;17.984;2023-07-31T01:15:11;100467.95;;;16.76;75.85
79378;BME280;68959;53.132;17.984;2023-07-31T01:17:38;100472.36;;;16.73;75.99
79378;BME280;68959;53.132;17.984;2023-07-31T01:20:14;100469.66;;;16.72;75.87
79378;BME280;68959;53.132;17.984;2023-07-31T01:22:48;100472.53;;;16.71;75.72
79378;BME280;68959;53.132;17.984;2023-07-31T01:25:51;100474.89;;;16.64;76.16
79378;BME280;68959;53.132;17.984;2023-07-31T01:28:22;100469.14;;;16.58;76.22
79378;BME280;68959;53.132;17.984;2023-07-31T01:30:51;100468.67;;;16.54;76.45
79378;BME280;68959;53.132;17.984;2023-07-31T01:33:22;100470.39;;;16.49;76.99
79378;BME280;68959;53.132;17.984;2023-07-31T01:35:49;100469.06;;;16.48;76.56
79378;BME280;68959;53.132;17.984;2023-07-31T01:38:20;100468.66;;;16.44;76.61
79378;BME280;68959;53.132;17.984;2023-07-31T01:40:52;100466.41;;;16.41;77.07
79378;BME280;68959;53.132;17.984;2023-07-31T01:43:20;100463.31;;;16.40;76.83
79378;BME280;68959;53.132;17.984;2023-07-31T01:45:47;100462.30;;;16.35;77.01
79378;BME280;68959;53.132;17.984;2023-07-31T01:48:14;100460.09;;;16.30;77.20
79378;BME280;68959;53.132;17.984;2023-07-31T01:50:41;100459.48;;;16.27;77.70
79378;BME280;68959;53.132;17.984;2023-07-31T01:53:08;100458.44;;;16.24;77.65
79378;BME280;68959;53.132;17.984;2023-07-31T01:55:34;100462.90;;;16.20;77.51
79378;BME280;68959;53.132;17.984;2023-07-31T01:58:01;100460.83;;;16.15;78.25
79378;BME280;68959;53.132;17.984;2023-07-31T02:00:27;100464.66;;;16.14;77.95
79378;BME280;68959;53.132;17.984;2023-07-31T02:02:54;100465.09;;;16.10;78.08
79378;BME280;68959;53.132;17.984;2023-07-31T02:05:21;100461.86;;;16.08;78.58
79378;BME280;68959;53.132;17.984;2023-07-31T02:07:47;100460.88;;;16.07;78.50
79378;BME280;68959;53.132;17.984;2023-07-31T02:10:14;100462.84;;;15.99;78.54
79378;BME280;68959;53.132;17.984;2023-07-31T02:12:41;100466.23;;;15.95;78.86
79378;BME280;68959;53.132;17.984;2023-07-31T02:15:08;100462.67;;;15.91;79.28
79378;BME280;68959;53.132;17.984;2023-07-31T02:17:36;100463.98;;;15.85;79.42
79378;BME280;68959;53.132;17.984;2023-07-31T02:20:03;100469.54;;;15.79;79.66
79378;BME280;68959;53.132;17.984;2023-07-31T02:22:30;100473.39;;;15.74;79.51
79378;BME280;68959;53.132;17.984;2023-07-31T02:24:57;100473.89;;;15.69;80.01
79378;BME280;68959;53.132;17.984;2023-07-31T02:27:23;100476.54;;;15.65;80.36
79378;BME280;68959;53.132;17.984;2023-07-31T02:29:53;100471.31;;;15.61;80.27
79378;BME280;68959;53.132;17.984;2023-07-31T02:32:21;100468.39;;;15.58;80.65
79378;BME280;68959;53.132;17.984;2023-07-31T02:34:47;100469.71;;;15.53;80.59
79378;BME280;68959;53.132;17.984;2023-07-31T02:37:14;100474.53;;;15.49;80.45
79378;BME280;68959;53.132;17.984;2023-07-31T02:39:40;100475.58;;;15.46;81.10
79378;BME280;68959;53.132;17.984;2023-07-31T02:42:07;100478.15;;;15.42;80.84
79378;BME280;68959;53.132;17.984;2023-07-31T02:44:34;100480.02;;;15.41;81.47
79378;BME280;68959;53.132;17.984;2023-07-31T02:47:00;100482.02;;;15.38;80.80
79378;BME280;68959;53.132;17.984;2023-07-31T02:49:27;100475.67;;;15.35;81.05
79378;BME280;68959;53.132;17.984;2023-07-31T02:51:53;100475.40;;;15.32;81.31
79378;BME280;68959;53.132;17.984;2023-07-31T02:54:20;100479.58;;;15.30;81.43
79378;BME280;68959;53.132;17.984;2023-07-31T02:56:48;100477.86;;;15.26;81.46
79378;BME280;68959;53.132;17.984;2023-07-31T02:59:17;100477.85;;;15.24;81.54
79378;BME280;68959;53.132;17.984;2023-07-31T03:01:44;100478.02;;;15.21;81.48
79378;BME280;68959;53.132;17.984;2023-07-31T03:04:11;100473.71;;;15.19;81.83
79378;BME280;68959;53.132;17.984;2023-07-31T03:06:38;100471.33;;;15.18;81.47
79378;BME280;68959;53.132;17.984;2023-07-31T03:09:04;100470.73;;;15.18;81.56
79378;BME280;68959;53.132;17.984;2023-07-31T03:11:31;100471.21;;;15.19;81.34
79378;BME280;68959;53.132;17.984;2023-07-31T03:13:58;100473.08;;;15.20;80.98
79378;BME280;68959;53.132;17.984;2023-07-31T03:16:25;100474.98;;;15.22;81.03
79378;BME280;68959;53.132;17.984;2023-07-31T03:18:51;100478.64;;;15.23;81.14
79378;BME280;68959;53.132;17.984;2023-07-31T03:21:18;100480.52;;;15.24;81.18
79378;BME280;68959;53.132;17.984;2023-07-31T03:23:44;100479.82;;;15.26;81.01
79378;BME280;68959;53.132;17.984;2023-07-31T03:26:11;100485.27;;;15.27;80.70
79378;BME280;68959;53.132;17.984;2023-07-31T03:28:37;100493.66;;;15.30;80.79
79378;BME280;68959;53.132;17.984;2023-07-31T03:31:04;100493.27;;;15.33;80.24
79378;BME280;68959;53.132;17.984;2023-07-31T03:33:31;100498.23;;;15.36;80.23
79378;BME280;68959;53.132;17.984;2023-07-31T03:35:58;100498.59;;;15.40;80.00
79378;BME280;68959;53.132;17.984;2023-07-31T03:38:25;100500.19;;;15.44;79.64
79378;BME280;68959;53.132;17.984;2023-07-31T03:40:54;100504.76;;;15.50;79.69
79378;BME280;68959;53.132;17.984;2023-07-31T03:43:20;100501.79;;;15.57;79.47
79378;BME280;68959;53.132;17.984;2023-07-31T03:45:47;100504.15;;;15.62;79.41
79378;BME280;68959;53.132;17.984;2023-07-31T03:48:14;100506.23;;;15.63;79.37
79378;BME280;68959;53.132;17.984;2023-07-31T03:50:42;100505.55;;;15.61;79.15
79378;BME280;68959;53.132;17.984;2023-07-31T03:53:09;100510.18;;;15.60;78.95
79378;BME280;68959;53.132;17.984;2023-07-31T03:55:35;100507.66;;;15.61;78.73
79378;BME280;68959;53.132;17.984;2023-07-31T03:58:02;100507.00;;;15.66;78.65
79378;BME280;68959;53.132;17.984;2023-07-31T04:00:28;100511.52;;;15.72;78.27
79378;BME280;68959;53.132;17.984;2023-07-31T04:02:55;100513.61;;;15.77;78.11
79378;BME280;68959;53.132;17.984;2023-07-31T04:05:21;100510.98;;;15.81;77.85
79378;BME280;68959;53.132;17.984;2023-07-31T04:07:48;100511.23;;;15.85;77.58
79378;BME280;68959;53.132;17.984;2023-07-31T04:10:15;100509.15;;;15.85;77.34
79378;BME280;68959;53.132;17.984;2023-07-31T04:12:41;100507.10;;;15.87;77.54
79378;BME280;68959;53.132;17.984;2023-07-31T04:15:09;100505.58;;;15.88;77.14
79378;BME280;68959;53.132;17.984;2023-07-31T04:17:35;100499.03;;;15.89;77.00
79378;BME280;68959;53.132;17.984;2023-07-31T04:20:02;100502.06;;;15.88;76.88
79378;BME280;68959;53.132;17.984;2023-07-31T04:22:29;100502.50;;;15.86;76.70
79378;BME280;68959;53.132;17.984;2023-07-31T04:24:55;100502.22;;;15.84;76.81
79378;BME280;68959;53.132;17.984;2023-07-31T04:27:22;100502.80;;;15.83;76.37
79378;BME280;68959;53.132;17.984;2023-07-31T04:29:48;100499.37;;;15.82;76.42
79378;BME280;68959;53.132;17.984;2023-07-31T04:32:15;100500.29;;;15.81;76.54
79378;BME280;68959;53.132;17.984;2023-07-31T04:34:43;100494.40;;;15.82;76.36
79378;BME280;68959;53.132;17.984;2023-07-31T04:37:10;100495.27;;;15.88;76.18
79378;BME280;68959;53.132;17.984;2023-07-31T04:39:36;100495.71;;;15.93;75.98
79378;BME280;68959;53.132;17.984;2023-07-31T04:42:03;100499.88;;;15.99;76.12
79378;BME280;68959;53.132;17.984;2023-07-31T04:44:30;100498.67;;;16.03;75.84
79378;BME280;68959;53.132;17.984;2023-07-31T04:46:57;100503.88;;;16.09;75.70
79378;BME280;68959;53.132;17.984;2023-07-31T04:49:23;100500.98;;;16.18;75.77
79378;BME280;68959;53.132;17.984;2023-07-31T04:51:50;100504.16;;;16.31;74.98
79378;BME280;68959;53.132;17.984;2023-07-31T04:54:16;100505.21;;;16.40;74.51
79378;BME280;68959;53.132;17.984;2023-07-31T04:56:43;100506.02;;;16.48;74.34
79378;BME280;68959;53.132;17.984;2023-07-31T04:59:10;100510.86;;;16.53;73.33
79378;BME280;68959;53.132;17.984;2023-07-31T05:01:36;100511.50;;;16.60;73.48
79378;BME280;68959;53.132;17.984;2023-07-31T05:04:03;100513.62;;;16.71;72.78
79378;BME280;68959;53.132;17.984;2023-07-31T05:06:29;100511.50;;;16.78;72.62
79378;BME280;68959;53.132;17.984;2023-07-31T05:08:56;100518.11;;;16.88;72.51
79378;BME280;68959;53.132;17.984;2023-07-31T05:11:22;100518.96;;;16.94;71.45
79378;BME280;68959;53.132;17.984;2023-07-31T05:13:49;100513.04;;;16.98;70.70
79378;BME280;68959;53.132;17.984;2023-07-31T05:16:16;100511.39;;;17.06;70.41
79378;BME280;68959;53.132;17.984;2023-07-31T05:18:42;100509.24;;;17.19;70.36
79378;BME280;68959;53.132;17.984;2023-07-31T05:21:09;100511.55;;;17.32;70.16
79378;BME280;68959;53.132;17.984;2023-07-31T05:23:35;100512.55;;;17.42;69.33
79378;BME280;68959;53.132;17.984;2023-07-31T05:26:06;100508.48;;;17.50;68.81
79378;BME280;68959;53.132;17.984;2023-07-31T05:28:34;100500.12;;;17.58;68.55
79378;BME280;68959;53.132;17.984;2023-07-31T05:31:02;100506.08;;;17.72;67.93
79378;BME280;68959;53.132;17.984;2023-07-31T05:33:29;100504.79;;;17.81;67.63
79378;BME280;68959;53.132;17.984;2023-07-31T05:35:56;100501.08;;;17.87;67.12
79378;BME280;68959;53.132;17.984;2023-07-31T05:38:23;100499.98;;;17.96;67.49
79378;BME280;68959;53.132;17.984;2023-07-31T05:40:49;100496.45;;;18.04;66.53
79378;BME280;68959;53.132;17.984;2023-07-31T05:43:16;100497.48;;;18.07;66.55
79378;BME280;68959;53.132;17.984;2023-07-31T05:45:42;100498.20;;;18.15;66.15
79378;BME280;68959;53.132;17.984;2023-07-31T05:48:09;100495.55;;;18.20;66.17
79378;BME280;68959;53.132;17.984;2023-07-31T05:50:36;100494.20;;;18.23;65.59
79378;BME280;68959;53.132;17.984;2023-07-31T05:53:06;100501.41;;;18.27;65.36
79378;BME280;68959;53.132;17.984;2023-07-31T05:55:34;100503.21;;;18.34;65.45
79378;BME280;68959;53.132;17.984;2023-07-31T05:58:01;100508.30;;;18.37;64.58
79378;BME280;68959;53.132;17.984;2023-07-31T06:00:27;100506.69;;;18.39;64.35
79378;BME280;68959;53.132;17.984;2023-07-31T06:02:54;100506.25;;;18.45;64.79
79378;BME280;68959;53.132;17.984;2023-07-31T06:05:21;100505.16;;;18.51;63.29
79378;BME280;68959;53.132;17.984;2023-07-31T06:07:48;100499.13;;;18.55;63.47
79378;BME280;68959;53.132;17.984;2023-07-31T06:10:14;100499.06;;;18.66;63.54
79378;BME280;68959;53.132;17.984;2023-07-31T06:12:41;100501.68;;;18.79;63.23
79378;BME280;68959;53.132;17.984;2023-07-31T06:15:07;100507.09;;;18.93;63.09
79378;BME280;68959;53.132;17.984;2023-07-31T06:17:34;100504.69;;;19.04;62.65
79378;BME280;68959;53.132;17.984;2023-07-31T06:20:01;100503.99;;;19.21;62.40
79378;BME280;68959;53.132;17.984;2023-07-31T06:22:29;100506.19;;;19.39;61.94
79378;BME280;68959;53.132;17.984;2023-07-31T06:24:56;100502.17;;;19.62;60.73
79378;BME280;68959;53.132;17.984;2023-07-31T06:27:22;100498.46;;;19.84;60.59
79378;BME280;68959;53.132;17.984;2023-07-31T06:29:49;100498.56;;;20.09;59.00
79378;BME280;68959;53.132;17.984;2023-07-31T06:32:16;100497.38;;;20.33;58.68
79378;BME280;68959;53.132;17.984;2023-07-31T06:34:42;100496.54;;;20.55;58.71
79378;BME280;68959;53.132;17.984;2023-07-31T06:37:09;100497.58;;;20.79;57.38
79378;BME280;68959;53.132;17.984;2023-07-31T06:39:35;100506.02;;;20.85;56.63
79378;BME280;68959;53.132;17.984;2023-07-31T06:42:02;100507.23;;;20.87;56.35
79378;BME280;68959;53.132;17.984;2023-07-31T06:44:29;100499.67;;;20.90;55.88
79378;BME280;68959;53.132;17.984;2023-07-31T06:46:55;100511.29;;;20.96;55.07
79378;BME280;68959;53.132;17.984;2023-07-31T06:49:22;100501.36;;;20.97;54.72
79378;BME280;68959;53.132;17.984;2023-07-31T06:51:49;100501.38;;;21.04;54.81
79378;BME280;68959;53.132;17.984;2023-07-31T06:54:15;100500.48;;;20.99;53.78
79378;BME280;68959;53.132;17.984;2023-07-31T06:56:42;100501.13;;;20.94;54.67
79378;BME280;68959;53.132;17.984;2023-07-31T06:59:08;100499.85;;;20.95;54.70
79378;BME280;68959;53.132;17.984;2023-07-31T07:01:35;100496.65;;;21.01;54.59
79378;BME280;68959;53.132;17.984;2023-07-31T07:04:01;100496.41;;;21.12;54.26
79378;BME280;68959;53.132;17.984;2023-07-31T07:06:28;100499.48;;;21.17;53.49
79378;BME280;68959;53.132;17.984;2023-07-31T07:08:54;100494.36;;;21.13;53.31
79378;BME280;68959;53.132;17.984;2023-07-31T07:11:21;100491.63;;;21.05;53.75
79378;BME280;68959;53.132;17.984;2023-07-31T07:13:48;100493.70;;;21.05;54.43
79378;BME280;68959;53.132;17.984;2023-07-31T07:16:14;100495.86;;;21.15;54.79
79378;BME280;68959;53.132;17.984;2023-07-31T07:18:41;100498.45;;;21.29;54.11
79378;BME280;68959;53.132;17.984;2023-07-31T07:21:07;100496.13;;;21.38;53.57
79378;BME280;68959;53.132;17.984;2023-07-31T07:23:34;100504.45;;;21.47;53.17
79378;BME280;68959;53.132;17.984;2023-07-31T07:26:01;100498.45;;;21.54;52.99
79378;BME280;68959;53.132;17.984;2023-07-31T07:28:27;100499.45;;;21.65;52.27
79378;BME280;68959;53.132;17.984;2023-07-31T07:30:55;100495.94;;;21.80;51.62
79378;BME280;68959;53.132;17.984;2023-07-31T07:33:21;100493.42;;;22.04;51.34
79378;BME280;68959;53.132;17.984;2023-07-31T07:35:48;100494.31;;;22.19;50.48
79378;BME280;68959;53.132;17.984;2023-07-31T07:38:15;100494.84;;;22.31;50.33
79378;BME280;68959;53.132;17.984;2023-07-31T07:40:42;100498.70;;;22.50;49.19
79378;BME280;68959;53.132;17.984;2023-07-31T07:43:08;100499.48;;;22.54;49.27
79378;BME280;68959;53.132;17.984;2023-07-31T07:45:35;100494.44;;;22.60;49.38
79378;BME280;68959;53.132;17.984;2023-07-31T07:48:02;100491.27;;;22.62;49.01
79378;BME280;68959;53.132;17.984;2023-07-31T07:50:28;100488.63;;;22.62;49.24
79378;BME280;68959;53.132;17.984;2023-07-31T07:52:55;100486.84;;;22.66;49.10
79378;BME280;68959;53.132;17.984;2023-07-31T07:55:22;100492.39;;;22.59;49.35
79378;BME280;68959;53.132;17.984;2023-07-31T07:57:48;100494.15;;;22.64;49.42
79378;BME280;68959;53.132;17.984;2023-07-31T08:00:16;100491.66;;;22.64;48.90
79378;BME280;68959;53.132;17.984;2023-07-31T08:02:43;100492.63;;;22.54;48.50
79378;BME280;68959;53.132;17.984;2023-07-31T08:05:10;100487.33;;;22.22;48.03
79378;BME280;68959;53.132;17.984;2023-07-31T08:07:37;100493.82;;;22.11;48.26
79378;BME280;68959;53.132;17.984;2023-07-31T08:10:04;100495.98;;;22.03;47.87
79378;BME280;68959;53.132;17.984;2023-07-31T08:12:31;100491.71;;;22.00;47.62
79378;BME280;68959;53.132;17.984;2023-07-31T08:14:58;100491.39;;;22.03;47.96
79378;BME280;68959;53.132;17.984;2023-07-31T08:17:26;100491.09;;;22.19;47.88
79378;BME280;68959;53.132;17.984;2023-07-31T08:19:53;100490.64;;;22.44;47.38
79378;BME280;68959;53.132;17.984;2023-07-31T08:22:22;100493.61;;;22.60;46.69
79378;BME280;68959;53.132;17.984;2023-07-31T08:24:48;100493.19;;;22.66;46.12
79378;BME280;68959;53.132;17.984;2023-07-31T08:27:15;100494.29;;;22.82;46.07
79378;BME280;68959;53.132;17.984;2023-07-31T08:29:42;100491.08;;;22.96;45.48
79378;BME280;68959;53.132;17.984;2023-07-31T08:32:08;100488.80;;;23.10;45.39
79378;BME280;68959;53.132;17.984;2023-07-31T08:34:35;100490.02;;;23.16;44.46
79378;BME280;68959;53.132;17.984;2023-07-31T08:37:01;100491.25;;;23.17;44.61
79378;BME280;68959;53.132;17.984;2023-07-31T08:39:28;100485.27;;;23.38;44.01
79378;BME280;68959;53.132;17.984;2023-07-31T08:41:58;100484.71;;;23.75;43.54
79378;BME280;68959;53.132;17.984;2023-07-31T08:44:27;100478.25;;;24.14;42.55
79378;BME280;68959;53.132;17.984;2023-07-31T08:46:53;100471.59;;;24.41;42.65
79378;BME280;68959;53.132;17.984;2023-07-31T08:49:22;100471.38;;;24.58;42.23
79378;BME280;68959;53.132;17.984;2023-07-31T08:51:50;100469.91;;;24.65;42.52
79378;BME280;68959;53.132;17.984;2023-07-31T08:54:17;100469.09;;;24.27;42.49
79378;BME280;68959;53.132;17.984;2023-07-31T08:56:44;100468.05;;;23.73;43.19
79378;BME280;68959;53.132;17.984;2023-07-31T08:59:11;100472.29;;;23.68;44.06
79378;BME280;68959;53.132;17.984;2023-07-31T09:01:43;100464.46;;;23.78;44.05
79378;BME280;68959;53.132;17.984;2023-07-31T09:04:14;100464.41;;;23.92;43.97
79378;BME280;68959;53.132;17.984;2023-07-31T09:06:42;100464.30;;;24.05;43.89
79378;BME280;68959;53.132;17.984;2023-07-31T09:09:10;100457.40;;;24.10;44.09
79378;BME280;68959;53.132;17.984;2023-07-31T09:11:37;100453.69;;;24.00;43.79
79378;BME280;68959;53.132;17.984;2023-07-31T09:14:03;100453.60;;;23.86;44.35
79378;BME280;68959;53.132;17.984;2023-07-31T09:16:35;100446.28;;;23.84;44.40
79378;BME280;68959;53.132;17.984;2023-07-31T09:19:01;100447.08;;;23.83;44.96
79378;BME280;68959;53.132;17.984;2023-07-31T09:21:29;100446.24;;;23.72;44.72
79378;BME280;68959;53.132;17.984;2023-07-31T09:23:57;100441.61;;;23.67;44.98
79378;BME280;68959;53.132;17.984;2023-07-31T09:26:31;100440.04;;;23.68;45.06
79378;BME280;68959;53.132;17.984;2023-07-31T09:28:59;100438.46;;;23.27;45.97
79378;BME280;68959;53.132;17.984;2023-07-31T09:31:39;100433.14;;;22.81;46.85
79378;BME280;68959;53.132;17.984;2023-07-31T09:34:06;100437.52;;;22.58;47.46
79378;BME280;68959;53.132;17.984;2023-07-31T09:36:40;100437.41;;;22.57;47.61
79378;BME280;68959;53.132;17.984;2023-07-31T09:39:09;100430.48;;;22.78;47.15
79378;BME280;68959;53.132;17.984;2023-07-31T09:41:39;100425.52;;;23.18;46.85
79378;BME280;68959;53.132;17.984;2023-07-31T09:44:07;100421.41;;;23.49;46.35
79378;BME280;68959;53.132;17.984;2023-07-31T09:46:35;100419.19;;;23.47;46.46
79378;BME280;68959;53.132;17.984;2023-07-31T09:49:11;100419.09;;;23.31;46.40
79378;BME280;68959;53.132;17.984;2023-07-31T09:51:42;100420.09;;;22.84;46.51
79378;BME280;68959;53.132;17.984;2023-07-31T09:54:18;100416.34;;;22.32;47.51
79378;BME280;68959;53.132;17.984;2023-07-31T09:56:48;100423.68;;;21.91;48.93
79378;BME280;68959;53.132;17.984;2023-07-31T09:59:20;100431.31;;;21.32;51.35
79378;BME280;68959;53.132;17.984;2023-07-31T10:01:49;100448.71;;;20.95;53.61
79378;BME280;68959;53.132;17.984;2023-07-31T10:04:27;100463.77;;;20.44;57.90
79378;BME280;68959;53.132;17.984;2023-07-31T10:06:54;100460.32;;;19.87;60.33
79378;BME280;68959;53.132;17.984;2023-07-31T10:09:25;100442.10;;;19.65;61.50
79378;BME280;68959;53.132;17.984;2023-07-31T10:12:00;100436.60;;;19.73;61.19
79378;BME280;68959;53.132;17.984;2023-07-31T10:14:30;100430.31;;;19.92;61.57
79378;BME280;68959;53.132;17.984;2023-07-31T10:16:58;100419.27;;;20.01;61.20
79378;BME280;68959;53.132;17.984;2023-07-31T10:19:26;100421.70;;;20.16;60.93
79378;BME280;68959;53.132;17.984;2023-07-31T10:21:54;100418.88;;;20.36;61.06
79378;BME280;68959;53.132;17.984;2023-07-31T10:24:23;100416.09;;;20.65;60.75
79378;BME280;68959;53.132;17.984;2023-07-31T10:26:52;100407.47;;;20.89;60.10
79378;BME280;68959;53.132;17.984;2023-07-31T10:29:21;100400.11;;;21.14;59.61
79378;BME280;68959;53.132;17.984;2023-07-31T10:31:48;100400.64;;;21.42;59.20
79378;BME280;68959;53.132;17.984;2023-07-31T10:34:16;100394.03;;;21.77;58.66
79378;BME280;68959;53.132;17.984;2023-07-31T10:36:43;100389.54;;;21.92;57.13
79378;BME280;68959;53.132;17.984;2023-07-31T10:39:35;100381.06;;;22.15;56.77
79378;BME280;68959;53.132;17.984;2023-07-31T10:42:12;100371.55;;;22.94;55.20
79378;BME280;68959;53.132;17.984;2023-07-31T10:44:44;100358.77;;;23.39;54.59
79378;BME280;68959;53.132;17.984;2023-07-31T10:47:14;100356.27;;;23.38;53.91
79378;BME280;68959;53.132;17.984;2023-07-31T10:49:44;100344.29;;;23.79;51.83
79378;BME280;68959;53.132;17.984;2023-07-31T10:52:12;100340.81;;;24.89;48.32
79378;BME280;68959;53.132;17.984;2023-07-31T10:54:40;100343.03;;;25.53;45.49
79378;BME280;68959;53.132;17.984;2023-07-31T10:57:21;100346.39;;;25.45;44.66
79378;BME280;68959;53.132;17.984;2023-07-31T10:59:49;100341.69;;;25.11;44.77
79378;BME280;68959;53.132;17.984;2023-07-31T11:02:26;100336.79;;;24.77;44.69
79378;BME280;68959;53.132;17.984;2023-07-31T11:05:09;100336.45;;;24.38;45.09
79378;BME280;68959;53.132;17.984;2023-07-31T11:07:49;100332.27;;;24.04;45.90
79378;BME280;68959;53.132;17.984;2023-07-31T11:10:17;100341.11;;;23.43;45.63
79378;BME280;68959;53.132;17.984;2023-07-31T11:12:45;100340.52;;;22.75;47.29
79378;BME280;68959;53.132;17.984;2023-07-31T11:15:12;100344.69;;;22.26;48.87
79378;BME280;68959;53.132;17.984;2023-07-31T11:17:39;100343.48;;;21.70;50.20
79378;BME280;68959;53.132;17.984;2023-07-31T11:20:07;100345.83;;;21.27;51.51
79378;BME280;68959;53.132;17.984;2023-07-31T11:22:36;100347.05;;;21.00;52.33
79378;BME280;68959;53.132;17.984;2023-07-31T11:25:03;100350.38;;;20.84;53.10
79378;BME280;68959;53.132;17.984;2023-07-31T11:27:30;100360.38;;;20.63;53.88
79378;BME280;68959;53.132;17.984;2023-07-31T11:30:01;100377.65;;;20.43;55.18
79378;BME280;68959;53.132;17.984;2023-07-31T11:32:28;100389.07;;;20.10;57.48
79378;BME280;68959;53.132;17.984;2023-07-31T11:34:55;100388.84;;;19.69;60.60
79378;BME280;68959;53.132;17.984;2023-07-31T11:37:22;100395.05;;;19.35;62.78
79378;BME280;68959;53.132;17.984;2023-07-31T11:40:02;100385.98;;;19.24;64.49
79378;BME280;68959;53.132;17.984;2023-07-31T11:42:30;100390.93;;;19.48;64.02
79378;BME280;68959;53.132;17.984;2023-07-31T11:44:56;100377.90;;;19.85;64.00
79378;BME280;68959;53.132;17.984;2023-07-31T11:47:25;100370.75;;;20.73;61.85
79378;BME280;68959;53.132;17.984;2023-07-31T11:49:53;100374.34;;;21.65;59.16
79378;BME280;68959;53.132;17.984;2023-07-31T11:52:19;100368.71;;;21.77;58.89
79378;BME280;68959;53.132;17.984;2023-07-31T11:54:47;100361.65;;;21.75;58.87
79378;BME280;68959;53.132;17.984;2023-07-31T11:57:14;100366.46;;;21.95;57.72
79378;BME280;68959;53.132;17.984;2023-07-31T11:59:41;100373.50;;;22.21;56.36
79378;BME280;68959;53.132;17.984;2023-07-31T12:02:09;100362.71;;;22.51;54.87
79378;BME280;68959;53.132;17.984;2023-07-31T12:04:36;100360.68;;;23.04;53.72
79378;BME280;68959;53.132;17.984;2023-07-31T12:07:04;100360.14;;;23.30;52.28
79378;BME280;68959;53.132;17.984;2023-07-31T12:09:31;100361.34;;;23.72;51.13
79378;BME280;68959;53.132;17.984;2023-07-31T12:11:57;100360.64;;;23.74;50.77
79378;BME280;68959;53.132;17.984;2023-07-31T12:14:26;100356.77;;;23.73;50.53
79378;BME280;68959;53.132;17.984;2023-07-31T12:16:58;100353.51;;;24.16;50.45
79378;BME280;68959;53.132;17.984;2023-07-31T12:19:26;100356.51;;;24.90;47.94
79378;BME280;68959;53.132;17.984;2023-07-31T12:22:00;100348.86;;;25.19;46.74
79378;BME280;68959;53.132;17.984;2023-07-31T12:24:27;100342.69;;;24.88;47.26
79378;BME280;68959;53.132;17.984;2023-07-31T12:26:54;100350.33;;;24.54;47.09
79378;BME280;68959;53.132;17.984;2023-07-31T12:29:21;100346.13;;;24.11;47.99
79378;BME280;68959;53.132;17.984;2023-07-31T12:31:48;100331.52;;;23.56;49.24
79378;BME280;68959;53.132;17.984;2023-07-31T12:34:20;100334.16;;;23.16;50.11
79378;BME280;68959;53.132;17.984;2023-07-31T12:36:49;100323.45;;;22.72;51.17
79378;BME280;68959;53.132;17.984;2023-07-31T12:39:16;100326.61;;;22.35;52.49
79378;BME280;68959;53.132;17.984;2023-07-31T12:41:42;100329.59;;;21.91;53.56
79378;BME280;68959;53.132;17.984;2023-07-31T12:44:09;100327.55;;;21.41;55.15